Decoded Metar for LFGA (COLMAR in FRANCE) (IATA:CMR) | Meteo·Mobile Aviation Weather
aviador You're here:

LFGA Decoded Metar

COLMAR in FRANCE
Report Time2019-09-17 00:30:00
UTC Time2019-09-17 00:51:14
Flight Rules vfr VFR
WindCalm
Visibility9999 m
Phenomena:N/A
Clouds:N/A
Expected CloudBase > 2,000 ft AGL from Temp-Dew spread
CeilingNone
Temp15°C
Dew Point10°C (72% RH)
QNH1018 hPa
Raw Report
METAR LFGA 170030Z AUTO 00000KT CAVOK 15/10 Q1018=

Extra information for LFGA:More info

Metar Taf Metar & Taf Last 4 Metars F.Rules Stats Wind Profile Meteogram Temp Stats Airport Information Weather charts Add Link Nearby VenuesMetar ALERT Operation Metar Decoded Social comments